Time;durP1;ratioP1;P1;durP2;ratioP2;P2;SDS_P1;SDS_P2;PMS_P1;PMS_P2;Temp;Humidity;BMP_temperature;BMP_pressure;BME280_temperature;BME280_humidity;BME280_pressure;Samples;Min_cycle;Max_cycle;Signal;HPM_P1;HPM_P2
2021/11/05 00:01:13;;;;;;;22.40;16.23;;;;;;;11.40;87.66;99603.31;1731470;82;21027;-62
2021/11/05 00:03:39;;;;;;;23.10;16.15;;;;;;;11.42;87.71;99593.75;1749640;82;21066;-62
2021/11/05 00:06:05;;;;;;;22.13;15.95;;;;;;;11.46;87.77;99593.45;1746924;82;21090;-62
2021/11/05 00:08:32;;;;;;;22.02;16.10;;;;;;;11.49;87.81;99596.98;1749769;82;20991;-62
2021/11/05 00:10:59;;;;;;;21.50;15.78;;;;;;;11.52;87.81;99601.05;1729228;82;21067;-63
2021/11/05 00:13:25;;;;;;;21.25;15.55;;;;;;;11.56;87.82;99597.21;1720162;83;21029;-62
2021/11/05 00:15:51;;;;;;;22.35;15.50;;;;;;;11.58;87.84;99603.22;1732939;82;21031;-62
2021/11/05 00:18:18;;;;;;;22.62;15.85;;;;;;;11.60;87.84;99602.38;1747772;82;20987;-63
2021/11/05 00:20:44;;;;;;;;;;;;;;;11.62;87.90;99605.08;1751864;82;21039;-62
2021/11/05 00:23:12;;;;;;;24.67;16.05;;;;;;;11.65;87.92;99596.91;1733277;81;20117;-64
2021/11/05 00:25:39;;;;;;;21.95;14.98;;;;;;;11.64;88.01;99602.08;1743571;82;21066;-63
2021/11/05 00:28:05;;;;;;;21.77;15.43;;;;;;;11.66;88.07;99604.78;1749167;82;21053;-63
2021/11/05 00:30:31;;;;;;;;;;;;;;;11.69;88.07;99612.39;1727357;82;21046;-62
2021/11/05 00:32:58;;;;;;;18.87;14.70;;;;;;;11.73;88.05;99608.59;1715065;84;20144;-62
2021/11/05 00:35:24;;;;;;;21.17;15.68;;;;;;;11.72;88.12;99606.98;1716800;82;21026;-62
2021/11/05 00:37:51;;;;;;;19.07;14.90;;;;;;;11.75;88.16;99603.69;1715204;84;21049;-63
2021/11/05 00:40:18;;;;;;;22.35;16.00;;;;;;;11.77;88.10;99602.30;1730532;82;21085;-62
2021/11/05 00:42:44;;;;;;;19.20;14.63;;;;;;;11.79;88.08;99611.03;1744728;82;21030;-63
2021/11/05 00:45:11;;;;;;;21.87;15.83;;;;;;;11.82;88.06;99617.82;1743003;82;21081;-63
2021/11/05 00:47:37;;;;;;;20.92;15.85;;;;;;;11.82;88.07;99613.19;1744225;82;21026;-63
2021/11/05 00:50:05;;;;;;;21.68;15.83;;;;;;;11.85;88.10;99614.52;1744119;82;21097;-62
2021/11/05 00:52:32;;;;;;;18.95;15.53;;;;;;;11.88;88.08;99611.22;1744497;82;21105;-62
2021/11/05 00:54:59;;;;;;;20.45;14.45;;;;;;;11.90;88.04;99600.86;1728129;82;21042;-62
2021/11/05 00:57:25;;;;;;;21.02;14.80;;;;;;;11.93;88.00;99592.92;1735592;82;21062;-62
2021/11/05 00:59:51;;;;;;;21.07;15.55;;;;;;;11.96;87.90;99592.90;1732971;82;21022;-62
2021/11/05 01:02:17;;;;;;;17.92;13.93;;;;;;;11.98;87.85;99592.05;1737975;82;21509;-63
2021/11/05 01:04:43;;;;;;;20.90;15.18;;;;;;;11.99;87.79;99590.96;1739457;82;21050;-63
2021/11/05 01:07:10;;;;;;;;;;;;;;;12.02;87.82;99593.12;1716437;84;21059;-62
2021/11/05 01:09:36;;;;;;;20.32;15.00;;;;;;;12.00;87.82;99585.78;1702502;84;20100;-62
2021/11/05 01:12:03;;;;;;;21.23;14.58;;;;;;;11.97;87.97;99580.90;1681630;84;21560;-62
2021/11/05 01:14:29;;;;;;;23.73;15.63;;;;;;;11.99;88.06;99575.96;1664212;84;21553;-63
2021/11/05 01:16:58;;;;;;;21.17;14.73;;;;;;;12.00;88.12;99576.23;1715790;82;20987;-63
2021/11/05 01:19:27;;;;;;;18.20;13.98;;;;;;;12.00;88.14;99577.59;1718546;82;21010;-62
2021/11/05 01:21:55;;;;;;;18.57;14.30;;;;;;;12.01;88.25;99575.11;1742052;82;21089;-63
2021/11/05 01:24:21;;;;;;;19.27;14.87;;;;;;;12.03;88.35;99566.66;1744206;82;21054;-62
2021/11/05 01:26:47;;;;;;;;;;;;;;;12.06;88.39;99576.45;1742864;82;21027;-63
2021/11/05 01:29:13;;;;;;;20.72;13.90;;;;;;;12.08;88.43;99574.81;1745157;82;20099;-63
2021/11/05 01:31:43;;;;;;;17.40;13.88;;;;;;;12.06;88.59;99576.45;1752821;82;21114;-63
2021/11/05 01:34:09;;;;;;;17.10;13.83;;;;;;;12.10;88.67;99577.52;1695555;83;21007;-62
2021/11/05 01:36:35;;;;;;;19.90;14.18;;;;;;;12.16;88.63;99572.81;1723472;82;21067;-62
2021/11/05 01:39:03;;;;;;;17.98;13.60;;;;;;;12.21;88.63;99576.88;1742552;82;21558;-62
2021/11/05 01:43:47;;;;;;;19.43;14.70;;;;;;;12.30;88.59;99574.59;1803849;79;22660;-63
2021/11/05 01:46:13;;;;;;;18.00;13.88;;;;;;;12.26;88.71;99583.64;1759503;81;21075;-63
2021/11/05 01:48:39;;;;;;;;;;;;;;;12.30;88.75;99588.24;1749459;82;21089;-62
2021/11/05 01:51:05;;;;;;;19.62;14.23;;;;;;;12.35;88.64;99579.20;1723501;82;20103;-63
2021/11/05 01:53:32;;;;;;;19.15;14.20;;;;;;;12.35;88.72;99578.66;1749080;82;21027;-63
2021/11/05 01:55:58;;;;;;;16.12;13.03;;;;;;;12.41;88.69;99584.88;1750527;82;21125;-63
2021/11/05 01:58:25;;;;;;;19.10;13.90;;;;;;;12.46;88.62;99587.56;1752209;82;21043;-63
2021/11/05 02:00:52;;;;;;;;;;;;;;;12.52;88.52;99584.22;1753420;82;21031;-63
2021/11/05 02:03:18;;;;;;;21.00;14.05;;;;;;;12.56;88.43;99583.38;1752597;82;20137;-63
2021/11/05 02:05:45;;;;;;;18.00;13.62;;;;;;;12.56;88.47;99577.09;1735791;82;21106;-63
2021/11/05 02:08:11;;;;;;;18.40;13.62;;;;;;;12.60;88.45;99569.95;1723613;82;21553;-62
2021/11/05 02:10:37;;;;;;;17.65;14.10;;;;;;;12.64;88.35;99565.00;1726537;82;20991;-61
2021/11/05 02:13:04;;;;;;;20.10;14.80;;;;;;;12.69;88.25;99574.48;1694934;83;21022;-61
2021/11/05 02:15:30;;;;;;;18.50;14.10;;;;;;;12.73;88.11;99570.08;1733505;82;20955;-61
2021/11/05 02:17:57;;;;;;;18.87;13.75;;;;;;;12.76;88.06;99573.59;1724609;82;20995;-61
2021/11/05 02:20:25;;;;;;;19.52;14.40;;;;;;;12.79;88.01;99577.11;1751086;82;20963;-62
2021/11/05 02:22:53;;;;;;;17.52;14.00;;;;;;;12.82;87.96;99577.88;1750347;82;21495;-61
2021/11/05 02:25:19;;;;;;;18.77;14.00;;;;;;;12.84;87.88;99585.80;1750956;82;20959;-62
2021/11/05 02:27:45;;;;;;;19.92;14.63;;;;;;;12.86;87.86;99589.86;1752977;82;21010;-61
2021/11/05 02:30:12;;;;;;;;;;;;;;;12.88;87.84;99589.04;1738486;82;21045;-61
2021/11/05 02:32:41;;;;;;;20.00;14.25;;;;;;;12.92;87.81;99600.20;1737154;82;20126;-62
2021/11/05 02:35:07;;;;;;;19.98;15.53;;;;;;;12.89;87.92;99600.20;1742094;82;20972;-62
2021/11/05 02:37:33;;;;;;;20.02;14.65;;;;;;;12.92;87.94;99600.20;1742286;82;21074;-61
2021/11/05 02:40:00;;;;;;;;;;;;;;;12.96;87.83;99599.89;1728125;82;21050;-61
2021/11/05 02:42:26;;;;;;;24.02;15.48;;;;;;;12.98;87.73;99608.05;1745899;81;20123;-61
2021/11/05 02:44:53;;;;;;;25.40;16.07;;;;;;;12.95;87.83;99603.17;1737532;82;21027;-62
2021/11/05 02:47:24;;;;;;;21.10;15.10;;;;;;;12.99;87.77;99603.40;1722105;82;20984;-62
2021/11/05 02:49:52;;;;;;;22.62;16.37;;;;;;;13.05;87.67;99604.14;1724348;82;21027;-61
2021/11/05 02:52:19;;;;;;;20.88;15.72;;;;;;;13.10;87.54;99604.13;1716951;82;21075;-62
2021/11/05 02:54:45;;;;;;;;;;;;;;;13.14;87.51;99586.05;1741809;82;20960;-62
2021/11/05 02:57:12;;;;;;;25.45;17.12;;;;;;;13.16;87.43;99598.30;1718980;82;20113;-61
2021/11/05 02:59:39;;;;;;;22.62;15.72;;;;;;;13.13;87.49;99585.23;1718254;82;20979;-62
2021/11/05 03:02:06;;;;;;;26.02;16.97;;;;;;;13.17;87.43;99579.99;1728017;82;21103;-61
2021/11/05 03:04:33;;;;;;;27.15;16.90;;;;;;;13.20;87.30;99587.60;1736139;82;21475;-62
2021/11/05 03:07:08;;;;;;;23.95;17.37;;;;;;;13.22;87.17;99579.91;1732440;82;21709;-62
2021/11/05 03:09:38;;;;;;;22.30;16.20;;;;;;;13.25;87.06;99585.61;1719270;82;21015;-62
2021/11/05 03:12:06;;;;;;;23.75;17.37;;;;;;;13.27;86.98;99582.05;1710345;82;21067;-63
2021/11/05 03:14:34;;;;;;;24.50;17.50;;;;;;;13.28;86.93;99578.22;1727232;82;21479;-62
2021/11/05 03:17:02;;;;;;;24.92;16.95;;;;;;;13.30;86.90;99572.44;1725331;82;21095;-63
2021/11/05 03:19:29;;;;;;;22.22;16.77;;;;;;;13.32;86.85;99576.49;1716580;82;21063;-63
2021/11/05 03:21:55;;;;;;;23.95;17.42;;;;;;;13.35;86.77;99569.09;1721695;82;21023;-63
2021/11/05 03:24:22;;;;;;;22.95;17.40;;;;;;;13.39;86.65;99574.79;1710575;82;21083;-62
2021/11/05 03:26:48;;;;;;;;;;;;;;;13.42;86.52;99579.12;1724375;82;21106;-63
2021/11/05 03:29:15;;;;;;;23.65;17.40;;;;;;;13.43;86.46;99572.52;1723388;82;20106;-63
2021/11/05 03:31:41;;;;;;;23.05;17.15;;;;;;;13.41;86.50;99577.48;1733865;82;21518;-62
2021/11/05 03:34:07;;;;;;;;;;;;;;;13.42;86.44;99581.03;1716714;82;21514;-62
2021/11/05 03:36:34;;;;;;;26.00;17.60;;;;;;;13.44;86.42;99582.36;1712718;82;20122;-63
2021/11/05 03:39:00;;;;;;;25.15;18.00;;;;;;;13.41;86.51;99586.23;1710510;82;21039;-62
2021/11/05 03:41:27;;;;;;;24.75;16.62;;;;;;;13.41;86.47;99574.75;1711999;82;21028;-62
2021/11/05 03:43:54;;;;;;;26.23;17.73;;;;;;;13.45;86.35;99583.17;1709567;83;21597;-63
2021/11/05 03:46:21;;;;;;;25.80;17.90;;;;;;;13.49;86.28;99582.85;1712337;82;21118;-63
2021/11/05 03:48:47;;;;;;;25.40;18.05;;;;;;;13.53;86.15;99589.91;1710361;82;21032;-62
2021/11/05 03:51:13;;;;;;;;;;;;;;;13.55;86.05;99590.42;1727120;82;21110;-63
2021/11/05 03:53:40;;;;;;;25.25;17.55;;;;;;;13.57;85.95;99582.75;1731815;82;20111;-63
2021/11/05 03:56:06;;;;;;;26.73;17.60;;;;;;;13.56;85.98;99581.12;1736778;82;21091;-62
2021/11/05 03:58:33;;;;;;;26.65;18.70;;;;;;;13.58;85.93;99578.34;1734260;82;21063;-63
2021/11/05 04:01:00;;;;;;;26.82;18.73;;;;;;;13.61;85.79;99581.03;1715958;82;21051;-63
2021/11/05 04:03:26;;;;;;;;;;;;;;;13.60;85.71;99572.03;1712353;84;21055;-63
2021/11/05 04:05:53;;;;;;;29.12;19.10;;;;;;;13.63;85.64;99564.60;1722118;82;20104;-62
2021/11/05 04:08:19;;;;;;;22.73;18.50;;;;;;;13.58;85.69;99573.41;1726767;82;21015;-62
2021/11/05 04:10:46;;;;;;;29.32;17.92;;;;;;;13.59;85.63;99574.50;1715083;82;21067;-63
2021/11/05 04:13:14;;;;;;;28.02;18.92;;;;;;;13.62;85.56;99570.35;1724283;82;21522;-62
2021/11/05 04:15:40;;;;;;;28.60;19.70;;;;;;;13.64;85.44;99579.88;1710875;82;21066;-62
2021/11/05 04:18:07;;;;;;;;;;;;;;;13.67;85.38;99582.60;1728419;82;21634;-63
2021/11/05 04:20:34;;;;;;;32.00;20.10;;;;;;;13.69;85.22;99580.38;1712598;82;20161;-62
2021/11/05 04:23:05;;;;;;;25.12;17.30;;;;;;;13.66;85.28;99579.05;1727618;82;21450;-63
2021/11/05 04:25:30;;;;;;;25.15;17.32;;;;;;;13.67;85.25;99575.77;1711338;82;20952;-62
2021/11/05 04:27:56;;;;;;;27.48;19.77;;;;;;;13.69;85.16;99580.38;1728774;82;21027;-62
2021/11/05 04:30:23;;;;;;;31.37;20.02;;;;;;;13.69;85.06;99572.98;1738523;82;21019;-63
2021/11/05 04:32:49;;;;;;;;;;;;;;;13.71;85.00;99576.22;1739995;82;21035;-63
2021/11/05 04:35:15;;;;;;;30.80;19.57;;;;;;;13.72;84.90;99568.28;1730492;82;20138;-63
2021/11/05 04:37:43;;;;;;;25.60;18.57;;;;;;;13.66;84.99;99558.53;1709826;83;21105;-62
2021/11/05 04:40:10;;;;;;;25.62;18.50;;;;;;;13.67;84.98;99553.33;1717921;82;21043;-63
2021/11/05 04:42:37;;;;;;;29.75;20.97;;;;;;;13.70;84.88;99553.28;1729652;82;21160;-63
2021/11/05 04:45:04;;;;;;;29.63;20.20;;;;;;;13.72;84.78;99565.55;1744057;82;21007;-62
2021/11/05 04:47:31;;;;;;;26.30;19.52;;;;;;;13.73;84.70;99575.94;1729695;81;21035;-62
2021/11/05 04:49:58;;;;;;;26.50;19.87;;;;;;;13.75;84.61;99577.81;1753057;82;21046;-63
2021/11/05 04:52:24;;;;;;;29.00;19.45;;;;;;;13.76;84.57;99573.98;1727974;82;21043;-63
2021/11/05 04:54:50;;;;;;;;;;;;;;;13.77;84.50;99572.33;1726014;82;21050;-62
2021/11/05 04:57:16;;;;;;;28.05;18.90;;;;;;;13.77;84.44;99568.77;1725611;82;20101;-63
2021/11/05 04:59:43;;;;;;;31.15;20.70;;;;;;;13.73;84.51;99574.02;1729353;82;21031;-62
2021/11/05 05:02:10;;;;;;;;;;;;;;;13.71;84.47;99572.12;1726310;82;21118;-63
2021/11/05 05:04:37;;;;;;;31.42;21.40;;;;;;;13.72;84.43;99571.57;1732719;82;20169;-63
2021/11/05 05:07:04;;;;;;;29.32;21.50;;;;;;;13.65;84.48;99574.67;1745334;82;21019;-63
2021/11/05 05:09:31;;;;;;;29.77;21.82;;;;;;;13.64;84.53;99580.46;1719330;83;21074;-63
2021/11/05 05:11:57;;;;;;;28.60;21.33;;;;;;;13.64;84.51;99574.99;1723130;83;21082;-62
2021/11/05 05:14:25;;;;;;;31.20;21.42;;;;;;;13.65;84.50;99576.59;1725169;82;21589;-64
2021/11/05 05:16:51;;;;;;;31.42;21.73;;;;;;;13.66;84.48;99579.60;1723350;82;21554;-63
2021/11/05 05:19:17;;;;;;;;;;;;;;;13.68;84.42;99576.00;1725956;82;21042;-64
2021/11/05 05:21:44;;;;;;;29.18;20.50;;;;;;;13.71;84.39;99578.17;1723405;83;20109;-64
2021/11/05 05:24:10;;;;;;;;;;;;;;;13.68;84.49;99584.20;1735191;82;21004;-64
2021/11/05 05:26:36;;;;;;;29.85;20.25;;;;;;;13.71;84.46;99583.06;1741394;82;20105;-63
2021/11/05 05:29:03;;;;;;;28.75;20.82;;;;;;;13.71;84.46;99585.02;1735913;82;21019;-64
2021/11/05 05:31:30;;;;;;;31.87;21.35;;;;;;;13.73;84.38;99584.14;1749823;82;21083;-64
2021/11/05 05:33:56;;;;;;;29.18;21.12;;;;;;;13.76;84.29;99588.47;1746573;82;21042;-64
2021/11/05 05:36:23;;;;;;;31.25;20.50;;;;;;;13.81;84.16;99588.95;1725093;82;21568;-64
2021/11/05 05:38:49;;;;;;;28.55;20.65;;;;;;;13.85;84.02;99595.47;1750917;82;21585;-63
2021/11/05 05:41:17;;;;;;;28.45;20.15;;;;;;;13.87;83.89;99598.71;1724348;82;21569;-63
2021/11/05 05:43:44;;;;;;;28.40;20.77;;;;;;;13.90;83.80;99597.56;1745579;81;21102;-63
2021/11/05 05:46:10;;;;;;;25.30;19.62;;;;;;;13.93;83.68;99587.94;1724575;82;21043;-63
2021/11/05 05:48:37;;;;;;;30.43;20.10;;;;;;;13.94;83.55;99600.52;1709871;82;21537;-63
2021/11/05 05:51:04;;;;;;;30.70;21.07;;;;;;;13.95;83.46;99604.89;1724709;82;21048;-63
2021/11/05 05:53:30;;;;;;;28.32;20.82;;;;;;;13.97;83.40;99613.60;1711778;82;20988;-63
2021/11/05 05:55:56;;;;;;;;;;;;;;;13.98;83.37;99619.34;1716419;82;21083;-63
2021/11/05 05:58:24;;;;;;;26.42;20.37;;;;;;;13.99;83.27;99625.09;1711409;82;20113;-63
2021/11/05 06:00:50;;;;;;;;;;;;;;;13.95;83.33;99633.08;1709914;82;21036;-63
2021/11/05 06:03:16;;;;;;;28.65;20.72;;;;;;;13.97;83.38;99623.18;1737987;81;20103;-63
2021/11/05 06:05:43;;;;;;;33.35;20.68;;;;;;;13.96;83.45;99629.75;1724439;82;21522;-62
2021/11/05 06:08:10;;;;;;;30.82;20.27;;;;;;;13.99;83.43;99620.98;1729214;82;21056;-63
2021/11/05 06:10:38;;;;;;;29.55;22.07;;;;;;;14.06;83.34;99615.95;1728377;82;21031;-64
2021/11/05 06:13:04;;;;;;;32.35;20.80;;;;;;;14.10;83.15;99610.11;1715800;82;20988;-64
2021/11/05 06:15:31;;;;;;;29.02;21.82;;;;;;;14.14;83.03;99595.27;1721852;82;21036;-63
2021/11/05 06:17:57;;;;;;;32.73;22.32;;;;;;;14.16;82.93;99588.41;1724748;82;21515;-64
2021/11/05 06:20:24;;;;;;;31.87;21.30;;;;;;;14.17;82.79;99609.17;1715063;82;21031;-64
2021/11/05 06:22:50;;;;;;;27.80;20.90;;;;;;;14.16;82.75;99615.78;1739278;82;21062;-64
2021/11/05 06:25:16;;;;;;;;;;;;;;;14.19;82.69;99611.07;1728256;82;21075;-64
2021/11/05 06:27:43;;;;;;;29.70;20.43;;;;;;;14.22;82.61;99620.05;1722171;82;20123;-64
2021/11/05 06:30:11;;;;;;;;;;;;;;;14.19;82.65;99617.09;1729551;82;21047;-64
2021/11/05 06:32:39;;;;;;;30.72;20.12;;;;;;;14.23;82.62;99617.58;1725649;82;20426;-64
2021/11/05 06:35:06;;;;;;;28.98;21.40;;;;;;;14.20;82.64;99611.34;1736902;82;20983;-65
2021/11/05 06:37:33;;;;;;;32.15;21.73;;;;;;;14.22;82.49;99613.76;1739048;82;21043;-64
2021/11/05 06:40:00;;;;;;;32.83;21.93;;;;;;;14.22;82.45;99617.87;1739257;82;21019;-64
2021/11/05 06:42:26;;;;;;;28.90;21.23;;;;;;;14.23;82.36;99627.16;1739181;82;21115;-64
2021/11/05 06:44:53;;;;;;;;;;;;;;;14.25;82.32;99633.69;1752004;82;21045;-64
2021/11/05 06:47:19;;;;;;;31.60;20.82;;;;;;;14.28;82.27;99627.06;1737485;82;20130;-65
2021/11/05 06:49:46;;;;;;;28.47;20.12;;;;;;;14.25;82.32;99620.82;1728721;82;21506;-64
2021/11/05 06:52:12;;;;;;;29.67;21.37;;;;;;;14.30;82.29;99625.41;1727509;82;21051;-65
2021/11/05 06:54:39;;;;;;;31.20;21.52;;;;;;;14.31;82.14;99610.03;1753276;82;21094;-65
2021/11/05 06:57:06;;;;;;;;;;;;;;;14.36;81.97;99608.62;1755727;82;21030;-65
2021/11/05 06:59:34;;;;;;;33.60;20.75;;;;;;;14.38;81.92;99602.86;1753128;82;20425;-65
2021/11/05 07:02:02;;;;;;;31.12;20.48;;;;;;;14.33;81.99;99615.22;1753265;82;21755;-65
2021/11/05 07:04:29;;;;;;;31.07;20.90;;;;;;;14.34;81.92;99636.88;1736038;82;21058;-64
2021/11/05 07:06:58;;;;;;;;;;;;;;;14.40;81.92;99643.07;1728186;82;21074;-64
2021/11/05 07:09:25;;;;;;;30.17;20.17;;;;;;;14.42;81.83;99655.34;1723459;83;20096;-63
2021/11/05 07:11:51;;;;;;;32.90;21.50;;;;;;;14.40;81.91;99652.11;1723146;83;21134;-63
2021/11/05 07:14:18;;;;;;;27.95;20.62;;;;;;;14.41;81.86;99652.38;1747795;82;21078;-63
2021/11/05 07:16:44;;;;;;;28.67;21.15;;;;;;;14.45;81.75;99646.52;1753031;82;21094;-64
2021/11/05 07:19:11;;;;;;;29.67;21.30;;;;;;;14.49;81.71;99648.69;1745293;82;20963;-64
2021/11/05 07:21:37;;;;;;;27.70;20.02;;;;;;;14.54;81.59;99651.33;1751971;82;21126;-63
2021/11/05 07:24:05;;;;;;;30.08;21.23;;;;;;;14.56;81.47;99654.02;1737787;80;21071;-63
2021/11/05 07:26:38;;;;;;;29.00;21.25;;;;;;;14.62;81.41;99647.91;1742184;82;21043;-63
2021/11/05 07:29:05;;;;;;;31.00;21.23;;;;;;;14.68;81.29;99643.96;1747684;81;21035;-63
2021/11/05 07:31:31;;;;;;;31.93;21.90;;;;;;;14.73;81.24;99644.70;1699287;82;21004;-64
2021/11/05 07:33:58;;;;;;;;;;;;;;;14.82;81.06;99650.28;1747409;82;21039;-63
2021/11/05 07:36:24;;;;;;;25.95;19.05;;;;;;;14.89;80.93;99654.81;1741990;82;20422;-63
2021/11/05 07:38:50;;;;;;;29.32;21.00;;;;;;;14.90;80.89;99651.78;1744899;82;21492;-64
2021/11/05 07:41:17;;;;;;;;;;;;;;;14.95;80.67;99648.94;1748212;80;21076;-63
2021/11/05 07:43:43;;;;;;;29.90;22.10;;;;;;;14.99;80.39;99658.73;1740394;80;20533;-63
2021/11/05 07:46:10;;;;;;;27.77;20.82;;;;;;;14.98;80.40;99652.20;1732313;80;21096;-64
2021/11/05 07:48:36;;;;;;;28.42;20.92;;;;;;;15.01;80.34;99653.78;1745312;80;21044;-64
2021/11/05 07:51:03;;;;;;;26.82;19.98;;;;;;;15.07;80.17;99669.01;1728463;82;21099;-64
2021/11/05 07:53:29;;;;;;;31.33;21.35;;;;;;;15.13;79.93;99678.76;1719964;82;21052;-64
2021/11/05 07:55:55;;;;;;;33.15;22.25;;;;;;;15.17;79.74;99674.85;1737736;82;21055;-63
2021/11/05 07:58:21;;;;;;;;;;;;;;;15.17;79.69;99659.77;1749665;82;21023;-64
2021/11/05 08:00:48;;;;;;;30.90;21.95;;;;;;;15.18;79.62;99658.11;1735271;82;20105;-63
2021/11/05 08:03:16;;;;;;;31.40;22.37;;;;;;;15.19;79.44;99665.23;1721481;82;21522;-63
2021/11/05 08:05:44;;;;;;;27.95;21.45;;;;;;;15.22;79.17;99674.77;1747303;82;21051;-63
2021/11/05 08:08:11;;;;;;;28.57;21.15;;;;;;;15.25;79.12;99693.35;1741065;82;21062;-63
2021/11/05 08:10:39;;;;;;;29.75;21.15;;;;;;;15.29;79.05;99699.86;1739744;82;21161;-63
2021/11/05 08:13:06;;;;;;;28.35;21.82;;;;;;;15.33;79.00;99703.07;1733693;82;21059;-63
2021/11/05 08:15:32;;;;;;;35.17;23.32;;;;;;;15.36;78.77;99705.20;1717324;83;21123;-63
2021/11/05 08:18:00;;;;;;;31.17;23.73;;;;;;;15.38;78.83;99698.02;1717234;83;21027;-63
2021/11/05 08:20:26;;;;;;;32.83;22.70;;;;;;;15.41;78.80;99690.00;1717264;83;21051;-63
2021/11/05 08:22:52;;;;;;;34.90;23.35;;;;;;;15.51;78.64;99671.20;1725898;82;21007;-63
2021/11/05 08:25:19;;;;;;;31.37;22.00;;;;;;;15.58;78.23;99674.35;1729406;82;21089;-63
2021/11/05 08:27:46;;;;;;;31.60;23.60;;;;;;;15.62;77.98;99670.44;1742314;82;21027;-63
2021/11/05 08:30:21;;;;;;;30.82;23.10;;;;;;;15.67;77.77;99666.20;1742306;82;21003;-62
2021/11/05 08:32:48;;;;;;;31.10;23.73;;;;;;;15.72;77.77;99666.09;1717723;83;21039;-62
2021/11/05 08:35:14;;;;;;;32.98;23.50;;;;;;;15.77;77.82;99668.16;1717422;83;21021;-62
2021/11/05 08:37:41;;;;;;;30.08;23.35;;;;;;;15.81;77.85;99655.45;1717469;83;21071;-63
2021/11/05 08:40:08;;;;;;;;;;;;;;;15.81;77.56;99638.17;1720032;83;21014;-62
2021/11/05 08:42:34;;;;;;;34.43;24.85;;;;;;;15.75;77.41;99634.73;1717559;83;20393;-62
2021/11/05 08:45:01;;;;;;;30.23;23.00;;;;;;;15.65;77.62;99654.17;1712059;83;21522;-63
2021/11/05 08:47:28;;;;;;;30.92;23.12;;;;;;;15.61;77.68;99666.06;1709502;83;21633;-63
2021/11/05 08:49:54;;;;;;;28.15;22.42;;;;;;;15.59;77.82;99690.26;1709501;84;21499;-62
2021/11/05 08:52:21;;;;;;;31.45;22.65;;;;;;;15.62;78.02;99684.16;1709548;84;21548;-62
2021/11/05 08:54:48;;;;;;;30.37;23.05;;;;;;;15.72;78.43;99683.94;1709649;83;21054;-62
2021/11/05 08:57:14;;;;;;;;;;;;;;;15.80;78.30;99689.50;1712279;84;21437;-62
2021/11/05 08:59:40;;;;;;;34.48;25.68;;;;;;;15.87;78.15;99678.91;1709657;84;20415;-62
2021/11/05 09:02:06;;;;;;;;;;;;;;;15.90;78.15;99653.62;1712454;83;21523;-63
2021/11/05 09:04:33;;;;;;;32.83;26.48;;;;;;;16.08;78.34;99661.45;1709701;84;20130;-62
2021/11/05 09:06:59;;;;;;;;;;;;;;;16.26;78.23;99676.93;1729058;82;21063;-62
2021/11/05 09:09:25;;;;;;;30.50;22.60;;;;;;;16.41;77.54;99688.94;1738893;82;20143;-62
2021/11/05 09:11:53;;;;;;;30.72;21.45;;;;;;;16.46;77.02;99685.83;1738710;82;21078;-62
2021/11/05 09:14:20;;;;;;;29.67;23.85;;;;;;;16.50;76.30;99686.83;1738838;82;21095;-63
2021/11/05 09:16:47;;;;;;;28.65;22.80;;;;;;;16.48;75.82;99683.00;1738934;82;21027;-62
2021/11/05 09:19:13;;;;;;;31.07;23.32;;;;;;;16.43;75.86;99668.86;1738937;82;21047;-62
2021/11/05 09:21:40;;;;;;;31.10;24.98;;;;;;;16.46;75.85;99656.98;1723442;81;21032;-65
2021/11/05 09:24:06;;;;;;;;;;;;;;;16.60;75.85;99661.88;1664477;85;21062;-64
2021/11/05 09:26:33;;;;;;;29.55;22.45;;;;;;;16.71;75.39;99660.50;1670741;84;20117;-64
2021/11/05 09:28:59;;;;;;;;;;;;;;;16.72;74.98;99658.80;1673417;86;21173;-65
2021/11/05 09:31:26;;;;;;;27.05;21.12;;;;;;;16.71;74.45;99665.44;1675734;84;20443;-66
2021/11/05 09:33:52;;;;;;;29.82;24.12;;;;;;;16.59;74.63;99654.75;1697541;84;21091;-65
2021/11/05 09:36:18;;;;;;;;;;;;;;;16.56;74.59;99647.95;1684585;84;21168;-66
2021/11/05 09:38:45;;;;;;;28.90;22.20;;;;;;;16.63;74.45;99657.13;1670950;86;20141;-65
2021/11/05 09:41:11;;;;;;;;;;;;;;;16.66;74.66;99657.86;1699982;82;21039;-65
2021/11/05 09:43:40;;;;;;;31.10;22.27;;;;;;;16.74;74.58;99645.56;1710473;82;20371;-65
2021/11/05 09:46:06;;;;;;;27.48;21.45;;;;;;;16.82;74.49;99643.44;1729625;82;21048;-64
2021/11/05 09:48:37;;;;;;;28.35;23.55;;;;;;;16.92;74.16;99631.34;1724501;82;21029;-64
2021/11/05 09:51:02;;;;;;;29.45;22.10;;;;;;;16.93;73.67;99623.91;1722947;82;21522;-64
2021/11/05 09:53:30;;;;;;;29.85;22.20;;;;;;;16.98;73.57;99621.83;1710409;82;20999;-64
2021/11/05 09:55:56;;;;;;;26.75;21.87;;;;;;;17.04;73.10;99628.80;1725653;82;21039;-65
2021/11/05 09:58:23;;;;;;;29.52;21.82;;;;;;;17.12;73.18;99639.59;1709686;84;20976;-64
2021/11/05 10:00:49;;;;;;;28.32;22.35;;;;;;;17.19;72.91;99649.58;1725353;82;21043;-65
2021/11/05 10:03:15;;;;;;;;;;;;;;;17.19;72.40;99661.40;1714103;82;20979;-65
2021/11/05 10:05:43;;;;;;;29.65;21.80;;;;;;;17.15;72.31;99659.03;1724001;81;20538;-65
2021/11/05 10:08:09;;;;;;;26.30;20.88;;;;;;;17.12;72.38;99666.54;1714936;81;21471;-64
2021/11/05 10:10:38;;;;;;;;;;;;;;;17.15;72.40;99671.41;1727946;81;21593;-64
2021/11/05 10:13:09;;;;;;;28.67;22.90;;;;;;;17.12;72.05;99659.66;1720961;82;20099;-65
2021/11/05 10:15:42;;;;;;;30.90;22.10;;;;;;;16.98;72.34;99662.26;1727046;82;21055;-64
2021/11/05 10:18:21;;;;;;;27.82;20.50;;;;;;;16.97;72.56;99646.32;1737968;82;21013;-64
2021/11/05 10:20:51;;;;;;;26.30;20.80;;;;;;;17.03;72.51;99643.70;1738820;82;21106;-64
2021/11/05 10:23:17;;;;;;;26.65;20.05;;;;;;;17.20;72.38;99638.27;1724570;82;21039;-65
2021/11/05 10:25:49;;;;;;;24.75;19.77;;;;;;;17.39;71.92;99629.17;1709506;84;21079;-65
2021/11/05 10:28:23;;;;;;;24.90;20.62;;;;;;;17.60;71.57;99625.88;1709929;84;21039;-65
2021/11/05 10:30:57;;;;;;;27.82;21.60;;;;;;;17.76;70.98;99620.97;1735812;82;21075;-64
2021/11/05 10:33:32;;;;;;;27.67;21.65;;;;;;;17.77;70.07;99610.20;1709629;84;21000;-64
2021/11/05 10:35:59;;;;;;;30.97;21.37;;;;;;;17.70;69.63;99598.05;1710374;82;21070;-64
2021/11/05 10:38:25;;;;;;;26.37;21.02;;;;;;;17.58;69.46;99585.47;1724769;82;20987;-65
2021/11/05 10:40:56;;;;;;;;;;;;;;;17.47;69.69;99590.44;1712102;82;21038;-64
2021/11/05 10:43:44;;;;;;;27.32;21.10;;;;;;;17.37;69.88;99615.50;1704370;82;20439;-64
2021/11/05 10:46:36;;;;;;;29.52;21.65;;;;;;;17.22;70.46;99637.38;1737651;81;21037;-64
2021/11/05 10:49:06;;;;;;;27.25;20.20;;;;;;;17.28;70.87;99637.50;1750514;82;20948;-65
2021/11/05 10:51:34;;;;;;;29.10;20.37;;;;;;;17.54;70.90;99629.86;1739039;82;21035;-64
2021/11/05 10:54:01;;;;;;;23.50;19.32;;;;;;;17.77;70.17;99640.49;1738529;82;20924;-64
2021/11/05 10:56:29;;;;;;;26.25;21.27;;;;;;;17.93;69.75;99632.56;1741666;82;20999;-64
2021/11/05 10:59:08;;;;;;;25.30;20.10;;;;;;;18.11;69.29;99627.30;1746772;82;21431;-64
2021/11/05 11:01:36;;;;;;;25.95;20.65;;;;;;;18.28;68.88;99632.81;1737869;82;20984;-64
2021/11/05 11:04:05;;;;;;;24.72;19.65;;;;;;;18.39;67.98;99640.99;1740757;82;20991;-64
2021/11/05 11:06:40;;;;;;;24.63;19.50;;;;;;;18.48;67.71;99642.37;1744036;82;21025;-65
2021/11/05 11:09:11;;;;;;;25.12;19.23;;;;;;;18.60;67.23;99638.99;1716664;83;20990;-64
2021/11/05 11:11:48;;;;;;;25.27;19.80;;;;;;;18.61;66.85;99646.11;1727277;82;21046;-64
2021/11/05 11:14:17;;;;;;;24.60;19.90;;;;;;;18.50;66.67;99633.20;1723441;83;20991;-64
2021/11/05 11:17:02;;;;;;;22.85;18.82;;;;;;;18.32;66.52;99643.43;1749801;82;21490;-64
2021/11/05 11:19:31;;;;;;;26.23;19.82;;;;;;;18.15;66.92;99644.81;1751505;82;20959;-65
2021/11/05 11:22:04;;;;;;;25.65;20.02;;;;;;;18.09;67.40;99650.81;1745537;82;21356;-64
2021/11/05 11:24:34;;;;;;;22.87;17.80;;;;;;;18.11;67.69;99645.21;1734381;82;20947;-65
2021/11/05 11:27:01;;;;;;;23.98;19.75;;;;;;;18.14;67.82;99647.31;1746960;82;21042;-64
2021/11/05 11:29:27;;;;;;;25.15;19.65;;;;;;;18.14;67.80;99643.78;1741043;82;21021;-65
2021/11/05 11:31:58;;;;;;;21.35;18.42;;;;;;;18.13;67.98;99639.39;1732516;82;21055;-65